Time;durP1;ratioP1;P1;durP2;ratioP2;P2;SDS_P1;SDS_P2;PMS_P1;PMS_P2;Temp;Humidity;BMP_temperature;BMP_pressure;BME280_temperature;BME280_humidity;BME280_pressure;Samples;Min_cycle;Max_cycle;Signal;HPM_P1;HPM_P2
2022/06/20 04:38:30;;;;;;;3.13;1.30;;;;;;;22.24;45.19;101604.56;4836027;29;20061;-81
2022/06/20 04:48:11;;;;;;;3.58;1.23;;;;;;;22.95;43.98;101608.50;4826641;29;20057;-86
2022/06/20 04:50:39;;;;;;;3.35;1.40;;;;;;;23.07;43.79;101608.28;4809505;29;20387;-88
2022/06/20 04:53:10;;;;;;;4.03;1.55;;;;;;;23.21;44.04;101618.50;4809614;29;20038;-88
2022/06/20 04:55:40;;;;;;;2.97;1.50;;;;;;;23.31;43.81;101613.94;4810064;29;20129;-90
2022/06/20 04:58:12;;;;;;;4.88;1.60;;;;;;;23.35;43.21;101611.19;4826952;29;20125;-93
2022/06/20 05:00:43;;;;;;;4.78;1.95;;;;;;;23.30;42.14;101613.06;4810516;29;20030;-92
2022/06/20 05:03:14;;;;;;;5.97;2.00;;;;;;;23.09;41.94;101608.25;4810165;29;20040;-87
2022/06/20 05:05:44;;;;;;;7.00;2.47;;;;;;;23.17;41.80;101603.72;4810046;29;20037;-89
2022/06/20 05:08:16;;;;;;;6.95;2.80;;;;;;;23.18;40.34;101605.44;4817522;29;20033;-87
2022/06/20 05:10:49;;;;;;;9.30;2.57;;;;;;;23.24;40.79;101612.34;4865171;29;20028;-89
2022/06/20 05:13:29;;;;;;;10.73;3.00;;;;;;;23.30;41.26;101613.06;4866247;29;20029;-87
2022/06/20 05:15:55;;;;;;;11.60;3.08;;;;;;;23.38;40.77;101616.38;4866383;29;20035;-87
2022/06/20 05:18:42;;;;;;;17.23;4.00;;;;;;;22.98;40.58;101611.94;4849117;29;20085;-88
2022/06/20 05:21:17;;;;;;;9.30;3.22;;;;;;;22.66;39.96;101612.53;4864759;29;20119;-82
2022/06/20 05:23:47;;;;;;;11.80;3.53;;;;;;;22.50;40.01;101616.34;4864025;29;20408;-83
2022/06/20 05:26:20;;;;;;;10.23;3.20;;;;;;;22.35;40.00;101615.72;4864964;29;20059;-84
2022/06/20 05:28:49;;;;;;;9.57;3.40;;;;;;;22.27;39.81;101624.59;4864533;29;20057;-83
2022/06/20 05:31:20;;;;;;;10.57;3.10;;;;;;;22.17;39.75;101619.50;4865433;29;20037;-81
2022/06/20 05:34:02;;;;;;;9.95;3.50;;;;;;;22.20;39.86;101631.69;4866748;29;20029;-83
2022/06/20 05:36:49;;;;;;;12.32;2.97;;;;;;;22.22;39.77;101623.78;4866427;29;20075;-83
2022/06/20 05:39:41;;;;;;;9.68;3.13;;;;;;;22.28;39.44;101623.72;4884302;29;20023;-82
2022/06/20 05:42:11;;;;;;;12.00;3.33;;;;;;;22.43;39.18;101633.06;4864584;29;20033;-82
2022/06/20 05:44:37;;;;;;;8.27;2.80;;;;;;;22.67;38.58;101637.91;4864589;29;20028;-82
2022/06/20 05:47:14;;;;;;;8.82;3.03;;;;;;;22.63;38.80;101638.84;4864591;29;20028;-81
2022/06/20 05:49:45;;;;;;;12.95;3.25;;;;;;;22.64;38.75;101635.31;4865019;29;20032;-82
2022/06/20 05:52:16;;;;;;;9.88;3.08;;;;;;;22.62;38.50;101650.22;4864274;29;20388;-83
2022/06/20 05:55:09;;;;;;;8.70;3.22;;;;;;;22.47;38.70;101642.63;4864448;29;20033;-83
2022/06/20 05:57:38;;;;;;;11.20;3.60;;;;;;;22.30;38.87;101641.16;4882363;29;20061;-83
2022/06/20 06:00:12;;;;;;;9.43;3.03;;;;;;;22.35;38.82;101649.81;4867460;29;20041;-83
2022/06/20 06:02:44;;;;;;;8.25;2.80;;;;;;;22.38;38.75;101652.41;4875935;29;20031;-83
2022/06/20 06:05:24;;;;;;;7.03;2.92;;;;;;;22.44;38.61;101642.69;4880624;29;20053;-84
2022/06/20 06:07:59;;;;;;;8.18;2.85;;;;;;;22.47;38.63;101646.13;4892246;29;20036;-83
2022/06/20 06:10:34;;;;;;;8.32;2.90;;;;;;;22.45;38.61;101652.28;4870064;29;20033;-82
2022/06/20 06:13:36;;;;;;;9.95;3.05;;;;;;;22.55;38.36;101648.59;4887037;29;20057;-83
2022/06/20 06:19:17;;;;;;;10.77;2.90;;;;;;;22.53;38.16;101648.63;4885340;29;20547;-81
2022/06/20 06:21:43;;;;;;;9.20;2.60;;;;;;;22.73;38.12;101648.28;4883172;29;20033;-83
2022/06/20 06:24:15;;;;;;;7.65;2.70;;;;;;;22.93;38.02;101644.41;4867959;29;20032;-85
2022/06/20 06:26:44;;;;;;;8.27;2.70;;;;;;;23.02;37.87;101651.25;4867193;29;20112;-84
2022/06/20 06:29:20;;;;;;;8.80;3.03;;;;;;;23.11;37.45;101659.84;4867373;29;20025;-85
2022/06/20 06:31:49;;;;;;;9.77;3.00;;;;;;;23.17;38.06;101664.13;4867402;29;20077;-83
2022/06/20 06:34:32;;;;;;;7.57;2.60;;;;;;;23.22;37.78;101679.78;4884089;29;20488;-84
2022/06/20 06:37:04;;;;;;;9.75;2.85;;;;;;;23.25;38.18;101680.56;4867360;29;20032;-82
2022/06/20 06:39:41;;;;;;;9.27;2.60;;;;;;;23.24;37.61;101673.59;4851755;29;20053;-83
2022/06/20 06:42:14;;;;;;;8.38;2.78;;;;;;;23.30;38.30;101677.84;4884070;29;20037;-85
2022/06/20 06:44:46;;;;;;;8.75;2.85;;;;;;;23.30;38.55;101672.59;4866959;29;20129;-84
2022/06/20 06:47:25;;;;;;;7.75;2.60;;;;;;;23.28;38.59;101674.38;4867170;29;20032;-84
2022/06/20 06:49:55;;;;;;;8.95;2.80;;;;;;;23.28;38.92;101677.88;4884266;29;20032;-84
2022/06/20 06:52:30;;;;;;;7.63;2.90;;;;;;;23.28;38.81;101675.25;4867460;29;20033;-84
2022/06/20 06:55:01;;;;;;;8.93;2.63;;;;;;;23.29;38.75;101682.22;4869364;29;20033;-84
2022/06/20 06:57:40;;;;;;;6.78;2.47;;;;;;;23.33;39.05;101685.66;4868406;29;20029;-84
2022/06/20 07:00:05;;;;;;;7.28;2.33;;;;;;;23.35;38.86;101686.50;4884607;29;20028;-84
2022/06/20 07:02:43;;;;;;;8.23;2.60;;;;;;;23.35;38.61;101691.75;4899150;29;20025;-84
2022/06/20 07:05:14;;;;;;;7.82;2.72;;;;;;;23.35;38.65;101691.75;4891731;29;20052;-84
2022/06/20 07:07:44;;;;;;;6.63;2.60;;;;;;;23.36;38.65;101688.22;4902088;29;20052;-85
2022/06/20 07:10:19;;;;;;;6.75;2.55;;;;;;;23.37;39.24;101687.34;4878321;29;20028;-85
2022/06/20 07:12:49;;;;;;;7.03;2.63;;;;;;;23.38;38.94;101686.44;4874990;29;20032;-85
2022/06/20 07:15:24;;;;;;;6.85;2.50;;;;;;;23.39;38.68;101690.81;4876510;29;20127;-84
2022/06/20 07:18:00;;;;;;;5.47;2.30;;;;;;;23.39;38.88;101696.91;4884749;29;20028;-85
2022/06/20 07:20:40;;;;;;;5.50;2.40;;;;;;;23.42;39.00;101701.25;4871041;29;20024;-84
2022/06/20 07:23:11;;;;;;;4.78;2.40;;;;;;;23.43;38.66;101700.34;4866414;29;20111;-85
2022/06/20 07:25:42;;;;;;;7.57;2.53;;;;;;;23.46;38.79;101697.66;4866502;29;20164;-85
2022/06/20 07:28:34;;;;;;;6.00;2.33;;;;;;;23.50;39.03;101698.47;4866608;29;20049;-84
2022/06/20 07:31:11;;;;;;;6.55;2.50;;;;;;;23.51;39.23;101701.03;4866790;29;20385;-85
2022/06/20 07:33:48;;;;;;;4.80;2.13;;;;;;;23.52;39.25;101700.16;4866828;29;20037;-84
2022/06/20 07:36:19;;;;;;;5.20;2.30;;;;;;;23.55;39.23;101707.09;4866538;29;20040;-86
2022/06/20 07:38:52;;;;;;;7.18;2.22;;;;;;;23.57;38.98;101707.94;4866305;29;20085;-86
2022/06/20 07:41:23;;;;;;;5.68;2.40;;;;;;;23.56;39.30;101712.34;4866589;29;20021;-84
2022/06/20 07:43:59;;;;;;;4.97;2.10;;;;;;;23.57;39.42;101713.19;4878781;29;20073;-86
2022/06/20 07:46:40;;;;;;;5.07;2.30;;;;;;;23.57;39.38;101721.94;4869626;29;20045;-84
2022/06/20 07:49:12;;;;;;;5.85;2.88;;;;;;;23.58;38.99;101717.53;4866817;29;20029;-86
2022/06/20 07:51:42;;;;;;;4.80;1.92;;;;;;;23.57;38.89;101719.31;4866430;29;20033;-86
2022/06/20 07:54:23;;;;;;;3.88;2.15;;;;;;;23.60;39.31;101726.25;4866049;29;20035;-86
2022/06/20 07:56:53;;;;;;;3.97;2.00;;;;;;;23.60;39.65;101719.25;4866026;29;20029;-85
2022/06/20 07:59:37;;;;;;;5.35;2.17;;;;;;;23.62;39.12;101717.44;4866353;29;20036;-87
2022/06/20 08:02:15;;;;;;;5.05;2.30;;;;;;;23.50;39.36;101728.22;4866466;29;20367;-86
2022/06/20 08:04:43;;;;;;;4.13;2.00;;;;;;;23.42;39.47;101732.75;4866135;29;20412;-86
2022/06/20 08:07:17;;;;;;;4.40;2.22;;;;;;;23.38;39.72;101734.56;4866639;29;20025;-86
2022/06/20 08:10:07;;;;;;;5.18;2.28;;;;;;;23.41;39.59;101733.66;4873503;29;20090;-84
2022/06/20 08:13:01;;;;;;;4.50;2.15;;;;;;;23.42;39.42;101738.88;4879522;29;20025;-84
2022/06/20 08:15:31;;;;;;;5.75;2.42;;;;;;;23.44;39.69;101735.38;4883663;29;20017;-85
2022/06/20 08:17:58;;;;;;;4.53;2.10;;;;;;;23.42;39.90;101740.63;4871691;29;20025;-87
2022/06/20 08:20:27;;;;;;;5.20;2.20;;;;;;;23.37;39.77;101738.09;4850933;29;20029;-84
2022/06/20 08:23:09;;;;;;;4.93;2.35;;;;;;;23.42;39.82;101746.75;4882513;29;20081;-85
2022/06/20 08:25:55;;;;;;;3.35;1.85;;;;;;;23.45;39.52;101755.47;4883280;29;20048;-86
2022/06/20 08:28:28;;;;;;;5.10;2.28;;;;;;;23.45;39.70;101750.22;4866442;29;20052;-85
2022/06/20 08:31:00;;;;;;;4.80;2.17;;;;;;;23.48;39.55;101751.03;4865675;29;20025;-84
2022/06/20 08:33:38;;;;;;;5.80;2.25;;;;;;;23.49;39.86;101752.75;4865624;29;20036;-84
2022/06/20 08:36:22;;;;;;;4.72;2.47;;;;;;;23.52;39.63;101757.97;4865829;29;20036;-85
2022/06/20 08:39:14;;;;;;;4.40;2.30;;;;;;;23.53;39.44;101754.41;4882946;29;20036;-85
2022/06/20 08:42:13;;;;;;;5.40;2.30;;;;;;;23.50;39.48;101759.75;4866927;29;20033;-84
2022/06/20 08:45:03;;;;;;;3.42;2.05;;;;;;;23.46;39.75;101759.84;4865967;29;20033;-85
2022/06/20 08:47:56;;;;;;;4.53;2.30;;;;;;;23.41;39.59;101765.19;4867604;29;20468;-84
2022/06/20 08:50:44;;;;;;;4.47;2.10;;;;;;;23.38;39.60;101770.47;4865703;29;20373;-85
2022/06/20 08:53:51;;;;;;;6.82;2.25;;;;;;;23.44;39.57;101767.75;4865655;29;20376;-85
2022/06/20 08:56:36;;;;;;;4.68;1.63;;;;;;;23.47;39.40;101772.94;4843360;29;20041;-85
2022/06/20 08:59:46;;;;;;;6.05;1.90;;;;;;;23.46;39.76;101773.84;4882146;29;20029;-85
2022/06/20 09:02:29;;;;;;;4.30;1.90;;;;;;;23.49;39.40;101765.03;4807084;29;20035;-85
2022/06/20 09:04:54;;;;;;;3.88;1.73;;;;;;;23.50;39.35;101772.03;4792431;29;20031;-87
2022/06/20 09:07:48;;;;;;;3.88;2.00;;;;;;;23.54;39.57;101777.19;4849303;29;20056;-86
2022/06/20 09:10:41;;;;;;;4.15;1.95;;;;;;;23.54;39.73;101782.44;4866188;29;20029;-87
2022/06/20 09:13:40;;;;;;;3.17;1.73;;;;;;;23.42;39.61;101783.53;4867448;29;20128;-84
2022/06/20 09:16:23;;;;;;;4.20;2.28;;;;;;;23.42;39.50;101777.41;4866919;29;20089;-86
2022/06/20 09:19:13;;;;;;;2.85;1.80;;;;;;;23.46;39.32;101786.97;4865984;29;20124;-85
2022/06/20 09:22:01;;;;;;;5.28;2.00;;;;;;;23.46;39.33;101786.97;4864380;29;20035;-84
2022/06/20 09:24:32;;;;;;;4.60;1.85;;;;;;;23.49;39.14;101796.53;4866837;29;20051;-84
2022/06/20 09:27:13;;;;;;;3.78;1.70;;;;;;;23.44;39.15;101793.16;4865230;29;20049;-84
2022/06/20 09:30:05;;;;;;;3.42;2.00;;;;;;;23.44;39.77;101796.63;4864938;29;20392;-84
2022/06/20 09:32:36;;;;;;;3.45;1.73;;;;;;;23.40;39.35;101790.56;4865025;29;20388;-85
2022/06/20 09:35:43;;;;;;;4.25;2.05;;;;;;;23.46;39.68;101786.13;4881253;29;20464;-85
2022/06/20 09:38:35;;;;;;;4.43;2.00;;;;;;;23.48;39.74;101794.84;4855770;29;20052;-84
2022/06/20 09:41:24;;;;;;;4.25;2.00;;;;;;;23.50;39.49;101793.91;4864712;29;20037;-85
2022/06/20 09:44:12;;;;;;;4.28;1.95;;;;;;;23.48;39.28;101803.56;4867298;29;20057;-84
2022/06/20 09:46:46;;;;;;;3.50;1.73;;;;;;;23.48;39.30;101798.31;4865144;29;20523;-87
2022/06/20 09:49:36;;;;;;;4.60;2.05;;;;;;;23.49;39.78;101800.03;4882139;29;20036;-85
2022/06/20 09:52:33;;;;;;;3.55;1.80;;;;;;;23.47;39.30;101801.81;4866721;29;20547;-85
2022/06/20 09:55:18;;;;;;;4.95;2.15;;;;;;;23.45;39.61;101803.59;4881520;29;20495;-78
2022/06/20 09:58:08;;;;;;;5.05;1.80;;;;;;;23.43;39.32;101808.06;4864004;29;20501;-78
2022/06/20 10:00:50;;;;;;;4.50;1.88;;;;;;;23.43;39.60;101802.81;4863868;29;20120;-79
2022/06/20 10:03:27;;;;;;;5.35;1.90;;;;;;;23.45;39.35;101798.34;4880619;29;20029;-78
2022/06/20 10:06:01;;;;;;;5.72;2.17;;;;;;;23.45;39.32;101800.97;4863679;29;20368;-78
2022/06/20 10:08:52;;;;;;;5.70;2.35;;;;;;;23.45;39.32;101800.13;4863576;29;20035;-77
2022/06/20 10:11:39;;;;;;;3.15;1.63;;;;;;;23.44;39.57;101809.78;4864944;29;20468;-78
2022/06/20 10:14:22;;;;;;;3.20;1.70;;;;;;;23.42;39.48;101814.19;4863797;29;20033;-79
2022/06/20 10:17:25;;;;;;;3.38;1.70;;;;;;;23.42;39.44;101819.44;4865297;29;20033;-79
2022/06/20 10:20:17;;;;;;;4.37;1.97;;;;;;;23.36;39.45;101819.56;4868441;29;20120;-79
2022/06/20 10:22:48;;;;;;;3.95;1.92;;;;;;;23.39;39.37;101822.13;4868623;29;20468;-78
2022/06/20 10:25:23;;;;;;;2.83;1.63;;;;;;;23.40;39.38;101821.22;4865279;29;20081;-78
2022/06/20 10:28:04;;;;;;;4.60;2.25;;;;;;;23.37;39.80;101816.91;4860883;29;20057;-79
2022/06/20 10:30:44;;;;;;;5.28;1.92;;;;;;;23.37;39.17;101819.53;4870779;29;20113;-78
2022/06/20 10:33:40;;;;;;;3.78;1.80;;;;;;;23.39;39.60;101827.38;4861241;29;20029;-78
2022/06/20 10:36:16;;;;;;;4.57;2.10;;;;;;;23.40;39.36;101834.38;4860636;29;20033;-78
2022/06/20 10:38:49;;;;;;;3.72;1.95;;;;;;;23.40;39.37;101832.59;4860489;29;20120;-78
2022/06/20 10:41:23;;;;;;;4.85;1.80;;;;;;;23.42;39.15;101846.56;4860476;29;20029;-80
2022/06/20 10:43:58;;;;;;;5.00;2.10;;;;;;;23.42;39.28;101840.47;4860226;29;20196;-78
2022/06/20 10:46:52;;;;;;;5.57;1.92;;;;;;;23.44;39.31;101833.41;4868576;29;20033;-79
2022/06/20 10:49:26;;;;;;;6.90;1.90;;;;;;;23.46;39.68;101831.63;4861043;29;20472;-77
2022/06/20 10:51:56;;;;;;;3.97;1.92;;;;;;;23.45;39.57;101826.41;4863437;29;20124;-78
2022/06/20 10:54:44;;;;;;;4.65;2.08;;;;;;;23.44;39.73;101835.19;4863594;29;20441;-78
2022/06/20 10:57:16;;;;;;;4.82;2.00;;;;;;;23.45;39.96;101831.66;4863269;29;20041;-78
2022/06/20 11:00:05;;;;;;;4.88;1.90;;;;;;;23.45;39.60;101829.03;4863137;29;20036;-79
2022/06/20 11:02:59;;;;;;;4.25;1.77;;;;;;;23.45;40.06;101831.66;4863136;29;20037;-79
2022/06/20 11:05:39;;;;;;;4.50;2.08;;;;;;;23.42;39.85;101836.06;4863550;29;20029;-79
2022/06/20 11:08:38;;;;;;;3.70;1.88;;;;;;;23.45;39.69;101832.50;4863748;29;20540;-79
2022/06/20 11:11:31;;;;;;;3.40;1.85;;;;;;;23.46;39.67;101836.03;4866149;29;20455;-78
2022/06/20 11:14:09;;;;;;;5.13;2.10;;;;;;;23.43;39.48;101831.69;4869236;29;20025;-78
2022/06/20 11:16:48;;;;;;;7.45;2.22;;;;;;;23.45;38.99;101836.91;4863310;29;20056;-78
2022/06/20 11:19:44;;;;;;;5.18;1.88;;;;;;;23.45;39.37;101837.75;4864594;29;20039;-78
2022/06/20 11:22:29;;;;;;;3.97;2.10;;;;;;;23.46;39.20;101842.13;4863308;29;20093;-79
2022/06/20 11:25:17;;;;;;;6.32;2.60;;;;;;;23.46;39.10;101838.66;4862836;29;20042;-78
2022/06/20 11:27:57;;;;;;;4.20;2.00;;;;;;;23.45;39.14;101840.38;4862897;29;20463;-78
2022/06/20 11:30:54;;;;;;;4.20;1.80;;;;;;;23.45;39.75;101840.38;4862865;29;20029;-78
2022/06/20 11:34:00;;;;;;;10.48;2.90;;;;;;;23.46;38.82;101842.13;4862462;29;20033;-78
2022/06/20 11:36:14;;;;;;;5.13;2.20;;;;;;;23.46;39.18;101859.66;4863476;29;20033;-79
2022/06/20 11:39:17;;;;;;;4.45;2.08;;;;;;;23.48;39.80;101847.38;4831818;29;20033;-78
2022/06/20 11:42:04;;;;;;;5.88;2.22;;;;;;;23.46;39.61;101860.53;4854787;29;20128;-78
2022/06/20 11:45:03;;;;;;;5.32;2.03;;;;;;;23.48;38.63;101855.25;4862355;29;20021;-78
2022/06/20 11:47:53;;;;;;;4.18;1.60;;;;;;;23.49;39.68;101851.72;4862364;29;20026;-79
2022/06/20 11:50:31;;;;;;;4.75;2.00;;;;;;;23.49;39.79;101849.09;4862330;29;20037;-78
2022/06/20 11:53:19;;;;;;;4.18;1.98;;;;;;;23.49;39.61;101844.69;4866502;29;20025;-78
2022/06/20 11:56:16;;;;;;;4.20;2.20;;;;;;;23.49;39.53;101849.09;4865510;29;20033;-78
2022/06/20 11:59:06;;;;;;;4.72;2.10;;;;;;;23.51;39.81;101852.56;4862400;29;20038;-78
2022/06/20 12:01:52;;;;;;;3.45;1.63;;;;;;;23.49;39.51;101860.47;4861121;29;20468;-78
2022/06/20 12:04:30;;;;;;;5.10;2.10;;;;;;;23.50;39.37;101850.84;4862148;29;20128;-78
2022/06/20 12:07:05;;;;;;;3.47;1.70;;;;;;;23.49;39.44;101857.84;4863451;29;20377;-79
2022/06/20 12:09:33;;;;;;;3.78;1.85;;;;;;;23.49;39.79;101857.84;4863541;29;20057;-77
2022/06/20 12:12:13;;;;;;;4.65;1.88;;;;;;;23.49;39.46;101865.72;4861782;29;20040;-77
2022/06/20 12:15:16;;;;;;;5.53;2.05;;;;;;;23.48;39.33;101877.13;4861960;29;20025;-78
2022/06/20 12:18:00;;;;;;;3.17;1.70;;;;;;;23.48;39.54;101873.63;4863220;29;20030;-78
2022/06/20 12:23:48;;;;;;;5.20;2.10;;;;;;;23.48;38.96;101865.75;4863467;29;20081;-78
2022/06/20 12:26:20;;;;;;;5.43;2.08;;;;;;;23.49;39.81;101868.34;4863269;29;20026;-79
2022/06/20 12:28:53;;;;;;;3.50;1.67;;;;;;;23.51;39.27;101873.56;4863743;29;20085;-80
2022/06/20 12:31:22;;;;;;;3.03;1.58;;;;;;;23.49;39.18;101873.59;4862622;29;20092;-78
2022/06/20 12:33:53;;;;;;;5.63;2.08;;;;;;;23.48;39.39;101874.50;4863276;29;20059;-80
2022/06/20 12:36:32;;;;;;;5.93;2.15;;;;;;;23.48;39.31;101873.63;4872961;29;20029;-79
2022/06/20 12:39:20;;;;;;;6.03;1.90;;;;;;;23.47;39.01;101867.50;4861747;29;20040;-78
2022/06/20 12:42:05;;;;;;;3.88;1.60;;;;;;;23.50;39.25;101877.97;4861647;29;20030;-78
2022/06/20 12:44:59;;;;;;;4.68;1.75;;;;;;;23.49;38.75;101873.59;4862030;29;20405;-78
2022/06/20 12:47:36;;;;;;;3.67;1.60;;;;;;;23.49;38.98;101873.59;4862320;29;20556;-78
2022/06/20 12:50:24;;;;;;;4.72;1.92;;;;;;;23.46;39.00;101865.78;4861787;29;20041;-79
2022/06/20 12:53:17;;;;;;;3.45;1.85;;;;;;;23.48;39.26;101857.88;4863385;29;20033;-78
2022/06/20 12:55:58;;;;;;;4.18;1.80;;;;;;;23.50;38.84;101863.97;4861798;29;20030;-79
2022/06/20 12:58:51;;;;;;;3.40;1.80;;;;;;;23.50;39.39;101875.34;4860941;29;20128;-79
2022/06/20 13:01:24;;;;;;;4.55;1.88;;;;;;;23.48;39.53;101881.53;4861394;29;20033;-78
2022/06/20 13:04:20;;;;;;;4.20;2.15;;;;;;;23.50;39.64;101875.34;4862789;29;20033;-79
2022/06/20 13:07:04;;;;;;;3.67;1.63;;;;;;;23.52;39.25;101873.56;4861297;29;20040;-78
2022/06/20 13:09:29;;;;;;;4.60;1.90;;;;;;;23.52;39.74;101862.19;4862247;29;20036;-78
2022/06/20 13:12:19;;;;;;;4.47;1.50;;;;;;;23.54;39.55;101869.16;4862319;29;20033;-78
2022/06/20 13:15:08;;;;;;;2.75;1.48;;;;;;;23.56;39.45;101858.59;4861453;29;20433;-78
2022/06/20 13:17:51;;;;;;;3.42;1.63;;;;;;;23.56;39.25;101863.84;4872943;29;20036;-77
2022/06/20 13:20:20;;;;;;;2.70;1.60;;;;;;;23.57;39.43;101865.59;4861884;29;20080;-78
2022/06/20 13:23:26;;;;;;;3.20;1.73;;;;;;;23.58;39.45;101873.44;4860822;29;20052;-78
2022/06/20 13:25:57;;;;;;;4.32;1.50;;;;;;;23.57;39.38;101881.34;4860950;29;20040;-78
2022/06/20 13:28:43;;;;;;;4.45;1.65;;;;;;;23.57;39.52;101870.84;4875363;29;20152;-79
2022/06/20 13:31:24;;;;;;;4.35;1.77;;;;;;;23.54;39.07;101878.75;4863636;29;20116;-78
2022/06/20 13:33:53;;;;;;;2.60;1.70;;;;;;;23.55;38.91;101870.84;4863814;29;20029;-78
2022/06/20 13:36:41;;;;;;;3.50;1.80;;;;;;;23.57;39.12;101879.59;4863525;29;20061;-78
2022/06/20 13:39:19;;;;;;;4.25;1.90;;;;;;;23.57;39.39;101871.69;4863987;29;20033;-78
2022/06/20 13:41:54;;;;;;;3.53;1.55;;;;;;;23.60;39.27;101878.66;4864717;29;20100;-85
2022/06/20 13:44:37;;;;;;;2.63;1.58;;;;;;;23.61;39.31;101883.03;4864433;29;20033;-86
2022/06/20 13:47:19;;;;;;;2.75;1.55;;;;;;;23.60;39.64;101887.44;4864473;29;20029;-85
2022/06/20 13:50:13;;;;;;;8.77;2.00;;;;;;;23.59;39.26;101882.19;4864422;29;20033;-86
2022/06/20 13:53:02;;;;;;;3.47;1.70;;;;;;;23.61;39.37;101893.53;4864482;29;20033;-86
2022/06/20 13:55:59;;;;;;;3.30;1.52;;;;;;;23.61;39.42;101891.78;4865193;29;20048;-77
2022/06/20 13:58:35;;;;;;;3.00;1.50;;;;;;;23.61;39.48;101897.03;4874363;29;20040;-85
2022/06/20 14:01:08;;;;;;;4.63;1.60;;;;;;;23.62;39.05;101887.38;4882427;29;20032;-87
2022/06/20 14:03:46;;;;;;;1.85;1.30;;;;;;;23.62;39.26;101890.00;4865828;29;20066;-85
2022/06/20 14:06:17;;;;;;;3.63;1.85;;;;;;;23.61;39.17;101888.28;4881448;29;20049;-85
2022/06/20 14:08:45;;;;;;;2.28;1.40;;;;;;;23.60;39.59;101878.66;4864257;29;20036;-85
2022/06/20 14:11:39;;;;;;;3.05;1.60;;;;;;;23.62;39.47;101892.63;4864771;29;20025;-85
2022/06/20 14:14:14;;;;;;;3.08;1.42;;;;;;;23.64;39.71;101893.47;4865325;29;20037;-86
2022/06/20 14:16:53;;;;;;;3.78;1.40;;;;;;;23.63;38.98;101897.00;4865204;29;20025;-87
2022/06/20 14:19:22;;;;;;;3.17;1.67;;;;;;;23.65;39.28;101903.09;4864776;29;20468;-87
2022/06/20 14:21:52;;;;;;;3.65;1.70;;;;;;;23.63;39.30;101889.13;4864937;29;20361;-87
2022/06/20 14:24:34;;;;;;;3.38;1.45;;;;;;;23.62;39.19;101890.00;4866286;29;20037;-85
2022/06/20 14:27:04;;;;;;;2.88;1.50;;;;;;;23.67;39.52;101895.16;4869632;29;20122;-85
2022/06/20 14:29:38;;;;;;;2.95;1.50;;;;;;;23.67;39.19;101893.44;4870118;29;20480;-86
2022/06/20 14:32:10;;;;;;;2.55;1.35;;;;;;;23.69;39.19;101890.75;4875684;29;20391;-88
2022/06/20 14:35:20;;;;;;;2.97;1.42;;;;;;;23.68;39.34;101887.28;4880256;29;20060;-86
2022/06/20 14:37:24;;;;;;;3.47;1.48;;;;;;;23.68;39.14;101883.78;4900011;29;20044;-87
2022/06/20 14:39:58;;;;;;;2.63;1.58;;;;;;;23.70;39.64;101889.88;4853484;29;20029;-86
2022/06/20 14:42:45;;;;;;;3.88;1.42;;;;;;;23.69;39.49;101889.03;4871650;29;20029;-87
2022/06/20 14:45:18;;;;;;;2.22;1.38;;;;;;;23.70;39.67;101887.25;4869900;29;20021;-86
2022/06/20 14:48:06;;;;;;;4.15;1.40;;;;;;;23.73;39.52;101887.19;4868928;29;20044;-86
2022/06/20 14:50:57;;;;;;;2.80;1.48;;;;;;;23.73;39.51;101897.69;4873313;29;20052;-85
2022/06/20 14:54:00;;;;;;;1.85;1.30;;;;;;;23.76;39.32;101889.81;4867590;29;20037;-87
2022/06/20 14:57:18;;;;;;;3.28;1.60;;;;;;;23.78;39.38;101891.50;4864997;29;20029;-88
2022/06/20 15:00:21;;;;;;;2.72;1.40;;;;;;;23.80;39.59;101883.56;4846828;29;20076;-86
2022/06/20 15:02:55;;;;;;;2.65;1.42;;;;;;;23.78;39.42;101878.34;4851853;29;20028;-85
2022/06/20 15:06:08;;;;;;;3.40;1.67;;;;;;;23.80;39.62;101878.31;4848766;29;20029;-86
2022/06/20 15:08:51;;;;;;;2.67;1.50;;;;;;;23.79;39.59;101879.22;4794569;29;20052;-86
2022/06/20 15:11:26;;;;;;;2.22;1.30;;;;;;;23.81;39.28;101872.16;4847890;29;20052;-87
2022/06/20 15:13:58;;;;;;;4.05;1.65;;;;;;;23.89;39.75;101875.53;4861129;29;20190;-89
2022/06/20 15:16:30;;;;;;;5.93;1.50;;;;;;;23.96;40.44;101871.88;4866711;29;20038;-88
2022/06/20 15:19:02;;;;;;;10.20;1.70;;;;;;;23.92;40.19;101872.81;4862684;29;20488;-87
2022/06/20 15:21:42;;;;;;;4.68;1.52;;;;;;;23.89;40.35;101880.78;4894380;29;20037;-88
2022/06/20 15:24:16;;;;;;;3.90;1.52;;;;;;;23.87;40.53;101884.34;4865383;29;20028;-88
2022/06/20 15:26:42;;;;;;;3.15;1.33;;;;;;;23.86;40.39;101877.34;4850115;29;20040;-85
2022/06/20 15:29:24;;;;;;;3.03;1.60;;;;;;;23.88;40.39;101891.31;4860494;29;20021;-88
2022/06/20 15:31:55;;;;;;;4.15;1.38;;;;;;;23.89;40.27;101880.78;4861001;29;20057;-89
2022/06/20 15:34:35;;;;;;;4.00;1.50;;;;;;;23.90;39.86;101887.75;4869856;29;20056;-88
2022/06/20 15:37:26;;;;;;;3.92;1.55;;;;;;;23.88;39.99;101875.53;4863154;29;20037;-89
2022/06/20 15:40:00;;;;;;;2.83;1.45;;;;;;;23.89;39.79;101874.63;4882767;29;20089;-87
2022/06/20 15:42:37;;;;;;;4.22;1.70;;;;;;;23.87;40.35;101873.81;4871572;29;20070;-88
2022/06/20 15:45:12;;;;;;;3.28;1.60;;;;;;;23.87;40.08;101872.06;4872218;29;20075;-89
2022/06/20 15:48:21;;;;;;;3.45;1.58;;;;;;;23.88;40.21;101872.91;4876444;29;20075;-87
2022/06/20 15:51:19;;;;;;;4.13;1.80;;;;;;;23.91;40.33;101880.72;4871557;29;20041;-88
2022/06/20 15:54:11;;;;;;;4.68;1.77;;;;;;;23.89;40.01;101875.53;4834957;29;20033;-87
2022/06/20 15:57:12;;;;;;;3.38;1.42;;;;;;;23.87;39.97;101885.19;4872999;29;20065;-87
2022/06/20 16:00:10;;;;;;;2.85;1.40;;;;;;;23.90;40.47;101871.97;4878972;29;20029;-87
2022/06/20 16:03:14;;;;;;;3.63;1.70;;;;;;;23.87;40.02;101877.31;4867550;29;20025;-87
2022/06/20 16:05:49;;;;;;;;;;;;;;;23.87;40.37;101881.72;4803655;29;20038;-87
2022/06/20 16:08:45;;;;;;;3.28;1.60;;;;;;;23.88;40.03;101868.53;4848172;29;20011;-87
2022/06/20 16:11:25;;;;;;;3.90;1.50;;;;;;;23.88;40.07;101862.41;4850171;29;20033;-88
2022/06/20 16:13:52;;;;;;;2.45;1.48;;;;;;;23.88;40.40;101871.16;4854734;29;20037;-87
2022/06/20 16:16:24;;;;;;;2.22;1.38;;;;;;;23.90;40.16;101857.97;4853717;29;20037;-87
2022/06/20 16:19:07;;;;;;;2.60;1.40;;;;;;;23.90;40.10;101868.50;4850242;29;20030;-87
2022/06/20 16:21:41;;;;;;;3.53;1.83;;;;;;;23.91;40.32;101870.22;4849894;29;20032;-88
2022/06/20 16:24:28;;;;;;;3.72;1.50;;;;;;;23.91;40.40;101872.84;4849110;29;20037;-87
2022/06/20 16:26:54;;;;;;;2.80;1.38;;;;;;;23.90;40.00;101873.75;4850011;29;20090;-87
2022/06/20 16:29:21;;;;;;;3.25;1.63;;;;;;;23.88;40.13;101871.16;4819242;29;20488;-87
2022/06/20 16:31:58;;;;;;;3.45;1.50;;;;;;;23.87;40.13;101873.81;4849351;29;20034;-87
2022/06/20 16:34:56;;;;;;;3.60;1.45;;;;;;;23.87;40.21;101872.06;4849008;29;20029;-87
2022/06/20 16:37:24;;;;;;;2.42;1.48;;;;;;;23.86;40.44;101878.19;4848853;29;20476;-88
2022/06/20 16:40:13;;;;;;;2.63;1.58;;;;;;;23.86;40.04;101882.59;4864195;29;20385;-87
2022/06/20 16:42:52;;;;;;;2.38;1.30;;;;;;;23.84;39.98;101874.72;4851489;29;20022;-87
2022/06/20 16:45:24;;;;;;;2.47;1.60;;;;;;;23.87;40.37;101863.31;4858008;29;20026;-87
2022/06/20 16:47:58;;;;;;;2.20;1.35;;;;;;;23.87;40.16;101871.19;4846918;29;20029;-86
2022/06/20 16:50:36;;;;;;;6.70;2.00;;;;;;;23.86;40.45;101879.97;4847648;29;20029;-88
2022/06/20 16:53:35;;;;;;;5.10;2.17;;;;;;;23.84;40.07;101874.72;4847166;29;20033;-86
2022/06/20 16:56:04;;;;;;;3.60;1.58;;;;;;;23.85;39.90;101875.63;4845993;29;20091;-86
2022/06/20 16:58:54;;;;;;;5.50;1.58;;;;;;;23.85;40.02;101865.97;4863084;29;20033;-86
2022/06/20 17:01:19;;;;;;;2.00;1.30;;;;;;;23.87;40.56;101864.16;4846228;29;20056;-88
2022/06/20 17:04:34;;;;;;;3.75;1.80;;;;;;;23.88;40.11;101867.66;4850112;29;20048;-85
2022/06/20 17:07:11;;;;;;;3.03;1.60;;;;;;;23.86;40.44;101883.44;4789465;29;20076;-88
2022/06/20 17:09:44;;;;;;;3.13;1.55;;;;;;;23.82;40.60;101871.25;4865011;29;20112;-85
2022/06/20 17:12:29;;;;;;;;;;;;;;;23.78;40.33;101866.97;4860714;29;20033;-85
2022/06/20 17:15:16;;;;;;;3.65;1.77;;;;;;;23.76;40.40;101867.00;4852234;29;19947;-87
2022/06/20 17:17:48;;;;;;;3.38;1.60;;;;;;;23.79;40.61;101882.69;4856572;29;20029;-82